createdAt,value
2018-09-22T00:02:24.402Z,14.20
2018-09-22T00:04:53.246Z,14.20
2018-09-22T00:07:22.116Z,14.30
2018-09-22T00:09:51.006Z,14.10
2018-09-22T00:12:19.810Z,14.20
2018-09-22T00:14:48.657Z,14.00
2018-09-22T00:17:17.498Z,13.70
2018-09-22T00:19:46.338Z,13.70
2018-09-22T00:22:15.230Z,13.60
2018-09-22T00:24:44.074Z,13.40
2018-09-22T00:27:13.092Z,13.30
2018-09-22T00:29:41.954Z,13.40
2018-09-22T00:32:10.798Z,13.20
2018-09-22T00:34:39.634Z,13.00
2018-09-22T00:39:37.007Z,12.90
2018-09-22T00:44:34.573Z,12.80
2018-09-22T00:47:03.426Z,12.90
2018-09-22T00:49:32.269Z,12.90
2018-09-22T00:52:01.134Z,13.00
2018-09-22T00:54:30.006Z,13.10
2018-09-22T00:56:58.840Z,13.10
2018-09-22T00:59:27.683Z,13.10
2018-09-22T01:01:56.535Z,13.20
2018-09-22T01:04:25.381Z,13.20
2018-09-22T01:06:54.234Z,13.20
2018-09-22T01:09:23.083Z,13.20
2018-09-22T01:11:51.949Z,13.20
2018-09-22T01:14:20.793Z,13.20
2018-09-22T01:16:49.641Z,13.30
2018-09-22T01:19:18.494Z,13.30
2018-09-22T01:21:47.334Z,13.30
2018-09-22T01:24:16.193Z,13.20
2018-09-22T01:26:45.042Z,13.30
2018-09-22T01:29:15.149Z,13.30
2018-09-22T01:31:44.709Z,13.30
2018-09-22T01:34:13.874Z,13.20
2018-09-22T01:36:43.126Z,13.10
2018-09-22T01:39:12.178Z,13.10
2018-09-22T01:41:41.794Z,13.10
2018-09-22T01:44:10.663Z,12.90
2018-09-22T01:46:39.496Z,12.90
2018-09-22T01:49:08.378Z,12.90
2018-09-22T01:51:37.227Z,12.80
2018-09-22T01:54:06.117Z,12.70
2018-09-22T01:56:34.975Z,12.80
2018-09-22T01:59:03.834Z,12.70
2018-09-22T02:01:32.682Z,12.80
2018-09-22T02:04:01.531Z,12.80
2018-09-22T02:06:30.383Z,12.70
2018-09-22T02:08:59.316Z,12.70
2018-09-22T02:11:28.173Z,12.70
2018-09-22T02:13:57.075Z,12.70
2018-09-22T02:16:25.951Z,12.80
2018-09-22T02:18:54.798Z,12.80
2018-09-22T02:21:23.655Z,12.60
2018-09-22T02:23:52.591Z,12.70
2018-09-22T02:26:21.491Z,12.60
2018-09-22T02:28:50.379Z,12.60
2018-09-22T02:31:19.222Z,12.50
2018-09-22T02:33:48.079Z,12.50
2018-09-22T02:36:16.893Z,12.50
2018-09-22T02:38:45.734Z,12.40
2018-09-22T02:41:14.566Z,12.40
2018-09-22T02:43:43.402Z,12.40
2018-09-22T02:46:12.234Z,12.40
2018-09-22T02:48:41.080Z,12.40
2018-09-22T02:51:09.914Z,12.40
2018-09-22T02:53:38.830Z,12.40
2018-09-22T02:56:07.666Z,12.30
2018-09-22T02:58:36.502Z,12.30
2018-09-22T03:01:05.395Z,12.30
2018-09-22T03:03:34.357Z,12.30
2018-09-22T03:06:03.191Z,12.40
2018-09-22T03:08:32.038Z,12.40
2018-09-22T03:11:00.867Z,12.30
2018-09-22T03:13:29.778Z,12.40
2018-09-22T03:15:58.667Z,12.30
2018-09-22T03:18:27.511Z,12.30
2018-09-22T03:20:56.350Z,12.40
2018-09-22T03:23:25.206Z,12.40
2018-09-22T03:25:54.042Z,12.40
2018-09-22T03:28:22.890Z,12.40
2018-09-22T03:30:51.749Z,12.40
2018-09-22T03:33:20.582Z,12.50
2018-09-22T03:35:49.426Z,12.60
2018-09-22T03:40:46.775Z,12.60
2018-09-22T03:43:15.606Z,12.70
2018-09-22T03:45:44.453Z,12.70
2018-09-22T03:48:13.289Z,12.80
2018-09-22T03:50:42.186Z,12.80
2018-09-22T03:53:11.018Z,12.80
2018-09-22T03:55:39.866Z,12.80
2018-09-22T03:58:08.698Z,12.80
2018-09-22T04:00:37.539Z,12.80
2018-09-22T04:03:06.420Z,12.80
2018-09-22T04:05:35.228Z,12.80
2018-09-22T04:08:04.053Z,12.80
2018-09-22T04:10:32.894Z,12.80
2018-09-22T04:13:01.731Z,12.80
2018-09-22T04:15:30.569Z,12.80
2018-09-22T04:17:59.403Z,12.80
2018-09-22T04:20:28.259Z,12.80
2018-09-22T04:22:57.104Z,12.70
2018-09-22T04:25:26.030Z,12.80
2018-09-22T04:27:55.187Z,12.80
2018-09-22T04:30:24.084Z,12.80
2018-09-22T04:32:52.943Z,12.80
2018-09-22T04:35:21.791Z,12.80
2018-09-22T04:37:50.671Z,12.80
2018-09-22T04:40:19.518Z,12.80
2018-09-22T04:42:48.355Z,12.80
2018-09-22T04:45:17.198Z,12.80
2018-09-22T04:47:46.034Z,12.90
2018-09-22T04:50:14.885Z,12.90
2018-09-22T04:52:43.730Z,12.90
2018-09-22T04:55:12.637Z,13.00
2018-09-22T04:57:41.489Z,13.00
2018-09-22T05:00:10.359Z,13.00
2018-09-22T05:02:39.229Z,12.90
2018-09-22T05:05:08.047Z,13.00
2018-09-22T05:07:36.886Z,12.90
2018-09-22T05:10:05.735Z,13.00
2018-09-22T05:12:34.566Z,12.90
2018-09-22T05:15:03.979Z,13.00
2018-09-22T05:17:32.827Z,13.00
2018-09-22T05:20:01.667Z,12.90
2018-09-22T05:22:30.506Z,12.90
2018-09-22T05:24:59.346Z,12.90
2018-09-22T05:27:28.185Z,13.00
2018-09-22T05:29:57.038Z,12.90
2018-09-22T05:32:25.873Z,13.00
2018-09-22T05:34:54.714Z,12.90
2018-09-22T05:37:23.590Z,12.80
2018-09-22T05:39:52.421Z,12.80
2018-09-22T05:42:21.310Z,12.80
2018-09-22T05:44:50.103Z,12.70
2018-09-22T05:47:18.954Z,12.80
2018-09-22T05:49:47.929Z,12.70
2018-09-22T05:52:16.766Z,12.80
2018-09-22T05:54:45.602Z,12.80
2018-09-22T05:57:14.442Z,12.80
2018-09-22T05:59:43.361Z,12.80
2018-09-22T06:02:12.264Z,12.60
2018-09-22T06:04:41.094Z,12.60
2018-09-22T06:07:09.938Z,12.70
2018-09-22T06:09:38.791Z,12.70
2018-09-22T06:12:07.662Z,12.70
2018-09-22T06:14:36.516Z,12.70
2018-09-22T06:17:05.366Z,12.80
2018-09-22T06:19:34.210Z,12.80
2018-09-22T06:22:03.045Z,12.90
2018-09-22T06:24:31.935Z,12.90
2018-09-22T06:27:00.778Z,13.00
2018-09-22T06:29:29.618Z,13.00
2018-09-22T06:31:58.470Z,13.10
2018-09-22T06:34:27.306Z,13.10
2018-09-22T06:36:56.418Z,13.00
2018-09-22T06:39:25.257Z,13.10
2018-09-22T06:41:54.127Z,13.10
2018-09-22T06:44:22.942Z,13.00
2018-09-22T06:46:51.778Z,13.10
2018-09-22T06:49:20.610Z,13.10
2018-09-22T06:51:49.452Z,13.10
2018-09-22T06:54:18.337Z,13.30
2018-09-22T06:56:47.175Z,13.20
2018-09-22T06:59:16.038Z,13.20
2018-09-22T07:01:44.886Z,13.30
2018-09-22T07:04:13.717Z,13.30
2018-09-22T07:06:42.571Z,13.40
2018-09-22T07:09:11.402Z,13.40
2018-09-22T07:11:40.371Z,13.40
2018-09-22T07:14:09.168Z,13.40
2018-09-22T07:16:38.075Z,13.40
2018-09-22T07:19:06.906Z,13.40
2018-09-22T07:21:41.146Z,13.40
2018-09-22T07:26:38.490Z,13.60
2018-09-22T07:29:07.326Z,13.60
2018-09-22T07:31:36.182Z,13.60
2018-09-22T07:34:05.013Z,13.60
2018-09-22T07:36:33.886Z,13.60
2018-09-22T07:39:02.746Z,13.70
2018-09-22T07:41:31.633Z,13.70
2018-09-22T07:44:00.480Z,13.80
2018-09-22T07:46:29.317Z,13.80
2018-09-22T07:48:58.159Z,13.90
2018-09-22T07:51:27.007Z,13.90
2018-09-22T07:53:55.883Z,14.00
2018-09-22T07:56:24.695Z,14.00
2018-09-22T07:58:53.744Z,14.10
2018-09-22T08:01:22.990Z,14.30
2018-09-22T08:03:51.831Z,14.40
2018-09-22T08:06:20.858Z,14.40
2018-09-22T08:08:49.698Z,14.40
2018-09-22T08:11:18.534Z,14.50
2018-09-22T08:13:47.378Z,14.50
2018-09-22T08:16:16.726Z,14.50
2018-09-22T08:18:45.549Z,14.50
2018-09-22T08:21:14.382Z,14.50
2018-09-22T08:23:43.233Z,14.50
2018-09-22T08:26:12.062Z,14.50
2018-09-22T08:28:40.902Z,14.60
2018-09-22T08:31:09.754Z,14.70
2018-09-22T08:33:38.615Z,14.70
2018-09-22T08:36:07.578Z,14.90
2018-09-22T08:38:36.317Z,15.10
2018-09-22T08:41:05.167Z,15.10
2018-09-22T08:43:34.015Z,15.10
2018-09-22T08:46:02.971Z,15.10
2018-09-22T08:48:31.815Z,15.00
2018-09-22T08:51:00.679Z,15.10
2018-09-22T08:53:29.520Z,15.10
2018-09-22T08:55:58.411Z,15.10
2018-09-22T08:58:27.227Z,15.20
2018-09-22T09:00:56.083Z,15.20
2018-09-22T09:03:24.935Z,15.20
2018-09-22T09:05:53.827Z,15.20
2018-09-22T09:08:22.651Z,13.70
2018-09-22T09:10:51.557Z,15.20
2018-09-22T09:13:20.381Z,15.30
2018-09-22T09:15:49.251Z,15.20
2018-09-22T09:18:18.093Z,15.40
2018-09-22T09:20:46.953Z,15.40
2018-09-22T09:23:15.814Z,15.40
2018-09-22T09:25:44.895Z,15.60
2018-09-22T09:28:13.747Z,15.70
2018-09-22T09:30:42.662Z,15.90
2018-09-22T09:33:11.522Z,15.90
2018-09-22T09:35:40.402Z,16.10
2018-09-22T09:38:09.285Z,16.20
2018-09-22T09:40:38.130Z,16.50
2018-09-22T09:43:07.119Z,16.60
2018-09-22T09:45:35.962Z,16.60
2018-09-22T09:48:04.826Z,16.60
2018-09-22T09:50:33.681Z,16.70
2018-09-22T09:53:02.626Z,16.60
2018-09-22T09:55:31.521Z,16.50
2018-09-22T09:58:00.371Z,16.40
2018-09-22T10:00:34.622Z,16.40
2018-09-22T10:03:03.466Z,16.30
2018-09-22T10:05:32.390Z,16.30
2018-09-22T10:08:01.241Z,16.30
2018-09-22T10:10:30.133Z,16.30
2018-09-22T10:12:58.971Z,16.30
2018-09-22T10:15:27.817Z,16.30
2018-09-22T10:17:56.662Z,16.40
2018-09-22T10:20:25.526Z,16.50
2018-09-22T10:22:54.365Z,16.60
2018-09-22T10:25:23.402Z,16.60
2018-09-22T10:27:52.246Z,16.80
2018-09-22T10:30:21.102Z,16.80
2018-09-22T10:32:49.964Z,16.80
2018-09-22T10:35:18.806Z,16.80
2018-09-22T10:37:47.658Z,16.80
2018-09-22T10:40:16.527Z,16.80
2018-09-22T10:42:45.398Z,16.80
2018-09-22T10:45:14.258Z,17.00
2018-09-22T10:47:43.103Z,17.10
2018-09-22T10:50:11.938Z,17.20
2018-09-22T10:52:40.844Z,17.10
2018-09-22T10:55:09.642Z,17.20
2018-09-22T10:57:38.567Z,17.20
2018-09-22T11:00:07.364Z,17.30
2018-09-22T11:02:36.209Z,17.30
2018-09-22T11:05:05.206Z,17.30
2018-09-22T11:07:34.059Z,17.40
2018-09-22T11:10:02.915Z,17.40
2018-09-22T11:12:31.768Z,17.40
2018-09-22T11:15:00.621Z,17.40
2018-09-22T11:17:29.478Z,17.50
2018-09-22T11:19:58.323Z,17.50
2018-09-22T11:22:27.184Z,17.50
2018-09-22T11:24:56.226Z,17.50
2018-09-22T11:27:25.078Z,17.60
2018-09-22T11:29:54.006Z,17.60
2018-09-22T11:32:22.915Z,17.80
2018-09-22T11:34:51.762Z,17.80
2018-09-22T11:37:20.824Z,17.80
2018-09-22T11:39:49.681Z,18.00
2018-09-22T11:42:18.535Z,18.00
2018-09-22T11:44:47.766Z,18.10
2018-09-22T11:47:16.609Z,18.10
2018-09-22T11:49:45.510Z,18.20
2018-09-22T11:52:14.318Z,18.20
2018-09-22T11:54:43.163Z,18.10
2018-09-22T11:57:12.006Z,18.20
2018-09-22T11:59:40.863Z,18.10
2018-09-22T12:02:09.795Z,18.20
2018-09-22T12:04:38.954Z,18.10
2018-09-22T12:07:08.205Z,18.10
2018-09-22T12:09:37.630Z,18.10
2018-09-22T12:12:06.517Z,18.10
2018-09-22T12:14:35.326Z,18.00
2018-09-22T12:17:04.180Z,17.90
2018-09-22T12:19:33.022Z,17.90
2018-09-22T12:22:02.421Z,17.90
2018-09-22T12:24:31.279Z,18.00
2018-09-22T12:27:00.130Z,17.80
2018-09-22T12:29:29.002Z,17.80
2018-09-22T12:31:58.000Z,18.00
2018-09-22T12:34:26.906Z,17.90
2018-09-22T12:36:55.767Z,17.90
2018-09-22T12:39:24.626Z,17.80
2018-09-22T12:41:53.511Z,17.80
2018-09-22T12:44:22.354Z,17.80
2018-09-22T12:46:51.206Z,17.70
2018-09-22T12:49:20.059Z,17.70
2018-09-22T12:51:48.901Z,17.70
2018-09-22T12:54:17.754Z,17.50
2018-09-22T12:56:46.666Z,17.50
2018-09-22T12:59:15.517Z,17.50
2018-09-22T13:01:44.354Z,17.40
2018-09-22T13:04:13.210Z,17.40
2018-09-22T13:06:42.109Z,17.50
2018-09-22T13:09:11.576Z,17.50
2018-09-22T13:11:40.421Z,17.40
2018-09-22T13:14:09.279Z,17.40
2018-09-22T13:16:38.114Z,17.40
2018-09-22T13:19:07.046Z,17.40
2018-09-22T13:21:36.002Z,17.40
2018-09-22T13:24:04.866Z,17.40
2018-09-22T13:26:33.719Z,17.40
2018-09-22T13:29:02.566Z,17.30
2018-09-22T13:31:31.406Z,17.30
2018-09-22T13:34:00.663Z,17.30
2018-09-22T13:36:29.491Z,17.20
2018-09-22T13:38:58.326Z,17.00
2018-09-22T13:41:27.154Z,17.00
2018-09-22T13:43:56.005Z,17.00
2018-09-22T13:46:24.892Z,16.90
2018-09-22T13:48:53.800Z,16.80
2018-09-22T13:51:22.630Z,16.50
2018-09-22T13:53:51.488Z,16.40
2018-09-22T13:56:20.454Z,16.20
2018-09-22T13:58:49.214Z,16.10
2018-09-22T14:01:18.046Z,16.10
2018-09-22T14:03:46.968Z,15.90
2018-09-22T14:06:15.738Z,15.80
2018-09-22T14:08:44.595Z,15.80
2018-09-22T14:11:13.414Z,16.30
2018-09-22T14:13:42.250Z,15.70
2018-09-22T14:16:11.078Z,15.80
2018-09-22T14:18:39.984Z,15.70
2018-09-22T14:21:08.751Z,15.70
2018-09-22T14:23:37.614Z,15.70
2018-09-22T14:26:06.533Z,15.80
2018-09-22T14:28:35.362Z,15.90
2018-09-22T14:31:04.202Z,15.90
2018-09-22T14:33:33.035Z,15.80
2018-09-22T14:36:01.872Z,15.80
2018-09-22T14:38:30.706Z,15.70
2018-09-22T14:43:28.023Z,15.60
2018-09-22T14:45:56.872Z,15.50
2018-09-22T14:48:25.687Z,15.50
2018-09-22T14:50:54.522Z,15.50
2018-09-22T14:53:23.354Z,15.40
2018-09-22T14:55:52.190Z,15.40
2018-09-22T14:58:21.055Z,15.40
2018-09-22T15:00:49.907Z,15.30
2018-09-22T15:03:18.740Z,15.40
2018-09-22T15:05:47.574Z,15.20
2018-09-22T15:08:16.402Z,15.20
2018-09-22T15:10:45.242Z,15.20
2018-09-22T15:13:14.078Z,15.30
2018-09-22T15:15:42.963Z,15.30
2018-09-22T15:18:11.797Z,15.30
2018-09-22T15:20:40.687Z,15.10
2018-09-22T15:23:09.486Z,15.10
2018-09-22T15:25:38.339Z,15.20
2018-09-22T15:28:07.182Z,15.20
2018-09-22T15:30:36.150Z,15.20
2018-09-22T15:33:05.106Z,15.20
2018-09-22T15:35:33.957Z,15.10
2018-09-22T15:38:02.806Z,15.10
2018-09-22T15:40:31.653Z,14.90
2018-09-22T15:43:00.494Z,14.90
2018-09-22T15:45:29.383Z,14.80
2018-09-22T15:47:58.210Z,14.70
2018-09-22T15:50:27.098Z,14.70
2018-09-22T15:52:55.938Z,14.70
2018-09-22T15:55:25.038Z,14.60
2018-09-22T15:57:53.886Z,14.60
2018-09-22T16:00:22.725Z,14.50
2018-09-22T16:02:51.574Z,14.40
2018-09-22T16:05:20.418Z,14.30
2018-09-22T16:10:17.775Z,14.40
2018-09-22T16:12:46.630Z,14.30
2018-09-22T16:17:44.002Z,14.30
2018-09-22T16:20:12.842Z,14.20
2018-09-22T16:22:41.695Z,14.20
2018-09-22T16:25:10.549Z,14.00
2018-09-22T16:27:39.386Z,14.00
2018-09-22T16:30:08.902Z,14.00
2018-09-22T16:32:37.942Z,14.00
2018-09-22T16:35:07.502Z,13.90
2018-09-22T16:37:36.358Z,13.80
2018-09-22T16:40:05.174Z,13.80
2018-09-22T16:42:34.058Z,13.80
2018-09-22T16:45:02.899Z,13.60
2018-09-22T16:47:31.748Z,13.60
2018-09-22T16:50:00.631Z,13.60
2018-09-22T16:52:29.401Z,13.50
2018-09-22T16:54:58.234Z,13.50
2018-09-22T16:57:27.070Z,13.50
2018-09-22T16:59:55.890Z,13.50
2018-09-22T17:02:24.730Z,13.40
2018-09-22T17:04:53.554Z,13.40
2018-09-22T17:07:22.434Z,13.30
2018-09-22T17:09:51.265Z,13.40
2018-09-22T17:12:20.108Z,13.40
2018-09-22T17:14:48.938Z,13.40
2018-09-22T17:17:17.769Z,13.40
2018-09-22T17:19:46.594Z,13.40
2018-09-22T17:22:15.430Z,13.40
2018-09-22T17:24:44.262Z,13.40
2018-09-22T17:27:13.100Z,13.10
2018-09-22T17:29:42.024Z,13.20
2018-09-22T17:32:11.546Z,13.30
2018-09-22T17:34:40.387Z,13.00
2018-09-22T17:37:09.222Z,12.90
2018-09-22T17:39:38.049Z,13.10
2018-09-22T17:42:06.963Z,13.00
2018-09-22T17:44:35.790Z,12.90
2018-09-22T17:47:04.626Z,12.90
2018-09-22T17:49:33.502Z,13.00
2018-09-22T17:52:02.286Z,13.00
2018-09-22T17:54:31.109Z,13.10
2018-09-22T17:57:00.046Z,13.10
2018-09-22T17:59:29.094Z,13.00
2018-09-22T18:01:58.339Z,13.20
2018-09-22T18:04:27.192Z,13.20
2018-09-22T18:06:55.999Z,13.20
2018-09-22T18:09:24.821Z,13.20
2018-09-22T18:11:53.653Z,13.30
2018-09-22T18:14:23.296Z,13.40
2018-09-22T18:16:52.231Z,13.40
2018-09-22T18:19:20.966Z,13.40
2018-09-22T18:21:49.793Z,13.40
2018-09-22T18:24:18.629Z,13.30
2018-09-22T18:29:15.969Z,13.40
2018-09-22T18:31:44.821Z,13.50
2018-09-22T18:34:13.679Z,13.40
2018-09-22T18:36:42.533Z,13.40
2018-09-22T18:39:11.342Z,13.40
2018-09-22T18:41:40.230Z,13.40
2018-09-22T18:46:37.566Z,13.50
2018-09-22T18:49:06.402Z,13.40
2018-09-22T18:51:35.469Z,13.40
2018-09-22T18:54:04.415Z,13.40
2018-09-22T18:56:33.247Z,13.40
2018-09-22T18:59:02.078Z,13.50
2018-09-22T19:01:30.938Z,13.50
2018-09-22T19:03:59.769Z,13.50
2018-09-22T19:06:28.614Z,13.50
2018-09-22T19:08:57.542Z,13.50
2018-09-22T19:11:26.302Z,13.50
2018-09-22T19:16:38.594Z,13.50
2018-09-22T19:19:10.234Z,13.40
2018-09-22T19:21:56.498Z,13.40
2018-09-22T19:24:59.174Z,13.40
2018-09-22T19:27:33.006Z,13.40
2018-09-22T19:30:05.338Z,13.40
2018-09-22T19:32:38.434Z,13.50
2018-09-22T19:35:13.971Z,13.40
2018-09-22T19:38:46.118Z,13.50
2018-09-22T19:41:22.794Z,13.50
2018-09-22T19:43:56.619Z,13.40
2018-09-22T19:46:30.459Z,13.40
2018-09-22T19:49:02.651Z,13.40
2018-09-22T19:51:35.675Z,13.50
2018-09-22T19:54:04.979Z,13.40
2018-09-22T19:56:33.805Z,13.40
2018-09-22T19:59:02.641Z,13.40
2018-09-22T20:01:31.479Z,13.40
2018-09-22T20:04:00.314Z,13.40
2018-09-22T20:06:29.146Z,13.30
2018-09-22T20:08:57.990Z,13.40
2018-09-22T20:11:26.839Z,13.40
2018-09-22T20:13:55.654Z,13.30
2018-09-22T20:16:24.542Z,13.30
2018-09-22T20:18:53.463Z,13.20
2018-09-22T20:21:22.313Z,13.20
2018-09-22T20:26:19.629Z,13.10
2018-09-22T20:28:48.466Z,13.00
2018-09-22T20:33:45.830Z,13.10
2018-09-22T20:36:14.706Z,13.10
2018-09-22T20:38:43.522Z,13.10
2018-09-22T20:41:12.423Z,13.10
2018-09-22T20:43:41.280Z,13.00
2018-09-22T20:46:10.120Z,12.90
2018-09-22T20:48:38.970Z,13.00
2018-09-22T20:51:08.227Z,12.90
2018-09-22T20:53:37.104Z,12.90
2018-09-22T20:56:05.934Z,12.90
2018-09-22T20:58:34.794Z,12.90
2018-09-22T21:01:03.634Z,12.90
2018-09-22T21:03:32.530Z,12.90
2018-09-22T21:06:01.370Z,12.90
2018-09-22T21:08:30.223Z,12.80
2018-09-22T21:10:59.066Z,12.80
2018-09-22T21:13:27.962Z,12.80
2018-09-22T21:15:56.940Z,12.70
2018-09-22T21:18:25.786Z,12.70
2018-09-22T21:20:54.626Z,12.70
2018-09-22T21:23:23.484Z,12.70
2018-09-22T21:25:52.318Z,12.70
2018-09-22T21:28:21.213Z,12.80
2018-09-22T21:30:50.101Z,12.80
2018-09-22T21:33:18.911Z,12.80
2018-09-22T21:35:47.747Z,12.80
2018-09-22T21:38:16.590Z,12.80
2018-09-22T21:40:45.489Z,12.80
2018-09-22T21:43:14.333Z,12.80
2018-09-22T21:45:43.193Z,12.80
2018-09-22T21:48:12.026Z,12.80
2018-09-22T21:50:40.874Z,12.70
2018-09-22T21:53:09.718Z,12.70
2018-09-22T21:55:38.570Z,12.60
2018-09-22T21:58:07.578Z,12.70
2018-09-22T22:00:36.430Z,12.60
2018-09-22T22:03:05.609Z,12.60
2018-09-22T22:05:34.453Z,12.70
2018-09-22T22:08:03.325Z,12.70
2018-09-22T22:10:32.170Z,12.60
2018-09-22T22:13:01.005Z,12.60
2018-09-22T22:15:30.462Z,12.60
2018-09-22T22:17:59.310Z,12.60
2018-09-22T22:20:28.157Z,12.70
2018-09-22T22:22:57.020Z,12.70
2018-09-22T22:25:25.864Z,12.50
2018-09-22T22:27:54.709Z,12.60
2018-09-22T22:30:23.561Z,12.80
2018-09-22T22:32:52.394Z,12.80
2018-09-22T22:35:21.625Z,12.80
2018-09-22T22:37:50.366Z,12.80
2018-09-22T22:40:19.198Z,12.80
2018-09-22T22:42:48.035Z,12.80
2018-09-22T22:47:45.398Z,12.80
2018-09-22T22:50:14.286Z,12.90
2018-09-22T22:52:43.147Z,12.80
2018-09-22T22:55:11.994Z,12.80
2018-09-22T22:57:40.830Z,12.90
2018-09-22T23:00:09.683Z,13.00
2018-09-22T23:02:38.501Z,12.90
2018-09-22T23:05:07.442Z,13.00
2018-09-22T23:07:36.274Z,12.90
2018-09-22T23:10:05.111Z,12.90
2018-09-22T23:12:33.954Z,12.90
2018-09-22T23:15:02.818Z,12.90
2018-09-22T23:17:31.646Z,12.90
2018-09-22T23:20:00.481Z,13.00
2018-09-22T23:22:29.309Z,13.00
2018-09-22T23:24:58.158Z,12.90
2018-09-22T23:27:27.378Z,12.90
2018-09-22T23:29:56.335Z,13.00
2018-09-22T23:32:25.170Z,13.00
2018-09-22T23:34:54.005Z,13.00
2018-09-22T23:37:22.847Z,13.10
2018-09-22T23:39:51.700Z,13.10
2018-09-22T23:42:20.534Z,13.10
2018-09-22T23:47:17.885Z,13.10
2018-09-22T23:49:47.310Z,13.00
2018-09-22T23:52:16.110Z,13.00
2018-09-22T23:54:44.946Z,13.10
2018-09-22T23:57:13.790Z,13.00
2018-09-22T23:59:42.640Z,13.00
